Terminal Aerodrome Forecast
Issued by NWS Pueblo, CO

Home | Current Version | Previous Version | Text Only | Print | Product List | Glossary On
Versions: 1 2 3 4 5 6 7 8 9 10 11 12 13 14 15 16 17 18 19 20 21 22 23 24 25 26 27 28 29 30 31 32 33 34 35 36 37 38 39 40 41 42 43 44 45 46 47 48 49 50
000
FTUS45 KPUB 011601 AAA
TAFCOS
TAF AMD
KCOS 011601Z 0116/0212 35013G23KT 5SM -SN SCT015 BKN025
      TEMPO 0118/0122 3SM -SN SCT008 BKN015
     FM012200 36012G22KT 4SM -SN SCT010 BKN020
      TEMPO 0122/0202 2SM -SN SCT005 OVC010
     FM020200 02012KT 5SM -SN BR OVC015
     FM020700 VRB05KT 6SM -SHSN BR BKN012=

USA.gov is the U.S. government's official web portal to all federal, state and local government web resources and services.